sensor_id;sensor_type;location;lat;lon;timestamp;P1;durP1;ratioP1;P2;durP2;ratioP2
26946;SDS011;14501;52.282;10.560;2022-11-12T00:00:28;13.35;;;7.22;;
26946;SDS011;14501;52.282;10.560;2022-11-12T00:02:54;12.75;;;7.00;;
26946;SDS011;14501;52.282;10.560;2022-11-12T00:05:19;14.73;;;7.28;;
26946;SDS011;14501;52.282;10.560;2022-11-12T00:07:45;13.55;;;6.35;;
26946;SDS011;14501;52.282;10.560;2022-11-12T00:10:11;15.07;;;7.30;;
26946;SDS011;14501;52.282;10.560;2022-11-12T00:12:36;10.95;;;7.05;;
26946;SDS011;14501;52.282;10.560;2022-11-12T00:15:02;18.48;;;6.82;;
26946;SDS011;14501;52.282;10.560;2022-11-12T00:17:28;14.93;;;6.70;;
26946;SDS011;14501;52.282;10.560;2022-11-12T00:19:54;14.70;;;7.20;;
26946;SDS011;14501;52.282;10.560;2022-11-12T00:22:19;12.57;;;6.45;;
26946;SDS011;14501;52.282;10.560;2022-11-12T00:24:45;12.82;;;7.20;;
26946;SDS011;14501;52.282;10.560;2022-11-12T00:27:11;15.60;;;6.55;;
26946;SDS011;14501;52.282;10.560;2022-11-12T00:29:36;15.52;;;6.50;;
26946;SDS011;14501;52.282;10.560;2022-11-12T00:32:03;12.13;;;6.45;;
26946;SDS011;14501;52.282;10.560;2022-11-12T00:34:30;11.95;;;6.35;;
26946;SDS011;14501;52.282;10.560;2022-11-12T00:36:56;13.00;;;6.50;;
26946;SDS011;14501;52.282;10.560;2022-11-12T00:39:22;13.38;;;7.28;;
26946;SDS011;14501;52.282;10.560;2022-11-12T00:41:47;14.82;;;7.00;;
26946;SDS011;14501;52.282;10.560;2022-11-12T00:44:13;16.05;;;6.82;;
26946;SDS011;14501;52.282;10.560;2022-11-12T00:46:38;12.93;;;6.07;;
26946;SDS011;14501;52.282;10.560;2022-11-12T00:49:04;13.75;;;6.35;;
26946;SDS011;14501;52.282;10.560;2022-11-12T00:51:29;15.15;;;7.15;;
26946;SDS011;14501;52.282;10.560;2022-11-12T00:53:55;15.70;;;6.30;;
26946;SDS011;14501;52.282;10.560;2022-11-12T00:56:20;13.90;;;6.80;;
26946;SDS011;14501;52.282;10.560;2022-11-12T00:58:46;12.00;;;6.30;;
26946;SDS011;14501;52.282;10.560;2022-11-12T01:01:12;17.10;;;6.25;;
26946;SDS011;14501;52.282;10.560;2022-11-12T01:03:39;15.45;;;6.50;;
26946;SDS011;14501;52.282;10.560;2022-11-12T01:06:09;12.20;;;5.93;;
26946;SDS011;14501;52.282;10.560;2022-11-12T01:08:37;11.77;;;5.63;;
26946;SDS011;14501;52.282;10.560;2022-11-12T01:11:45;14.45;;;6.10;;
26946;SDS011;14501;52.282;10.560;2022-11-12T01:14:04;11.02;;;5.80;;
26946;SDS011;14501;52.282;10.560;2022-11-12T01:16:34;12.88;;;6.15;;
26946;SDS011;14501;52.282;10.560;2022-11-12T01:19:01;13.20;;;5.97;;
26946;SDS011;14501;52.282;10.560;2022-11-12T01:21:29;13.38;;;7.00;;
26946;SDS011;14501;52.282;10.560;2022-11-12T01:23:56;12.63;;;6.40;;
26946;SDS011;14501;52.282;10.560;2022-11-12T01:26:24;11.00;;;5.70;;
26946;SDS011;14501;52.282;10.560;2022-11-12T01:28:52;17.45;;;6.07;;
26946;SDS011;14501;52.282;10.560;2022-11-12T01:31:19;11.90;;;5.10;;
26946;SDS011;14501;52.282;10.560;2022-11-12T01:33:47;16.30;;;6.68;;
26946;SDS011;14501;52.282;10.560;2022-11-12T01:36:17;13.82;;;5.97;;
26946;SDS011;14501;52.282;10.560;2022-11-12T01:38:43;9.57;;;5.32;;
26946;SDS011;14501;52.282;10.560;2022-11-12T01:41:32;9.95;;;5.70;;
26946;SDS011;14501;52.282;10.560;2022-11-12T01:46:33;13.40;;;5.35;;
26946;SDS011;14501;52.282;10.560;2022-11-12T01:49:02;10.95;;;5.53;;
26946;SDS011;14501;52.282;10.560;2022-11-12T01:51:33;11.50;;;6.18;;
26946;SDS011;14501;52.282;10.560;2022-11-12T01:54:05;10.52;;;4.63;;
26946;SDS011;14501;52.282;10.560;2022-11-12T01:56:33;9.45;;;5.07;;
26946;SDS011;14501;52.282;10.560;2022-11-12T01:59:01;11.90;;;6.22;;
26946;SDS011;14501;52.282;10.560;2022-11-12T02:01:35;10.07;;;4.93;;
26946;SDS011;14501;52.282;10.560;2022-11-12T02:04:02;8.57;;;4.90;;
26946;SDS011;14501;52.282;10.560;2022-11-12T02:06:28;9.30;;;5.00;;
26946;SDS011;14501;52.282;10.560;2022-11-12T02:08:55;9.80;;;5.47;;
26946;SDS011;14501;52.282;10.560;2022-11-12T02:11:21;7.50;;;4.70;;
26946;SDS011;14501;52.282;10.560;2022-11-12T02:13:47;9.75;;;5.25;;
26946;SDS011;14501;52.282;10.560;2022-11-12T02:16:35;8.30;;;4.82;;
26946;SDS011;14501;52.282;10.560;2022-11-12T02:19:03;7.07;;;4.78;;
26946;SDS011;14501;52.282;10.560;2022-11-12T02:21:31;8.60;;;4.43;;
26946;SDS011;14501;52.282;10.560;2022-11-12T02:23:58;7.95;;;4.18;;
26946;SDS011;14501;52.282;10.560;2022-11-12T02:26:33;7.68;;;4.78;;
26946;SDS011;14501;52.282;10.560;2022-11-12T02:29:01;7.65;;;4.32;;
26946;SDS011;14501;52.282;10.560;2022-11-12T02:31:27;9.13;;;5.00;;
26946;SDS011;14501;52.282;10.560;2022-11-12T02:33:53;7.13;;;3.95;;
26946;SDS011;14501;52.282;10.560;2022-11-12T02:36:19;7.18;;;4.70;;
26946;SDS011;14501;52.282;10.560;2022-11-12T02:38:45;10.82;;;4.55;;
26946;SDS011;14501;52.282;10.560;2022-11-12T02:41:10;6.65;;;4.10;;
26946;SDS011;14501;52.282;10.560;2022-11-12T02:43:36;4.70;;;3.80;;
26946;SDS011;14501;52.282;10.560;2022-11-12T02:46:03;6.00;;;4.22;;
26946;SDS011;14501;52.282;10.560;2022-11-12T02:48:28;8.57;;;4.07;;
26946;SDS011;14501;52.282;10.560;2022-11-12T02:50:54;6.47;;;4.00;;
26946;SDS011;14501;52.282;10.560;2022-11-12T02:53:19;6.72;;;3.90;;
26946;SDS011;14501;52.282;10.560;2022-11-12T02:55:45;6.45;;;4.13;;
26946;SDS011;14501;52.282;10.560;2022-11-12T02:58:10;6.50;;;3.80;;
26946;SDS011;14501;52.282;10.560;2022-11-12T03:00:36;5.30;;;3.50;;
26946;SDS011;14501;52.282;10.560;2022-11-12T03:03:02;8.02;;;3.90;;
26946;SDS011;14501;52.282;10.560;2022-11-12T03:05:28;6.95;;;4.07;;
26946;SDS011;14501;52.282;10.560;2022-11-12T03:07:59;8.93;;;4.07;;
26946;SDS011;14501;52.282;10.560;2022-11-12T03:10:27;8.18;;;4.95;;
26946;SDS011;14501;52.282;10.560;2022-11-12T03:12:57;4.13;;;3.35;;
26946;SDS011;14501;52.282;10.560;2022-11-12T03:15:24;5.90;;;3.63;;
26946;SDS011;14501;52.282;10.560;2022-11-12T03:17:52;6.75;;;3.83;;
26946;SDS011;14501;52.282;10.560;2022-11-12T03:20:17;6.20;;;3.88;;
26946;SDS011;14501;52.282;10.560;2022-11-12T03:22:54;6.72;;;3.83;;
26946;SDS011;14501;52.282;10.560;2022-11-12T03:25:25;6.05;;;3.15;;
26946;SDS011;14501;52.282;10.560;2022-11-12T03:28:34;6.28;;;3.65;;
26946;SDS011;14501;52.282;10.560;2022-11-12T03:30:41;5.60;;;3.85;;
26946;SDS011;14501;52.282;10.560;2022-11-12T03:33:08;5.35;;;3.58;;
26946;SDS011;14501;52.282;10.560;2022-11-12T03:35:35;5.55;;;3.38;;
26946;SDS011;14501;52.282;10.560;2022-11-12T03:38:02;6.72;;;3.72;;
26946;SDS011;14501;52.282;10.560;2022-11-12T03:40:28;6.38;;;3.45;;
26946;SDS011;14501;52.282;10.560;2022-11-12T03:42:54;5.20;;;3.25;;
26946;SDS011;14501;52.282;10.560;2022-11-12T03:45:21;6.93;;;3.53;;
26946;SDS011;14501;52.282;10.560;2022-11-12T03:47:49;5.80;;;3.58;;
26946;SDS011;14501;52.282;10.560;2022-11-12T03:50:17;6.43;;;4.15;;
26946;SDS011;14501;52.282;10.560;2022-11-12T03:52:44;7.38;;;3.75;;
26946;SDS011;14501;52.282;10.560;2022-11-12T03:55:12;8.13;;;3.55;;
26946;SDS011;14501;52.282;10.560;2022-11-12T03:57:38;5.95;;;3.72;;
26946;SDS011;14501;52.282;10.560;2022-11-12T04:00:04;5.28;;;3.38;;
26946;SDS011;14501;52.282;10.560;2022-11-12T04:02:31;5.80;;;3.40;;
26946;SDS011;14501;52.282;10.560;2022-11-12T04:04:57;6.85;;;3.65;;
26946;SDS011;14501;52.282;10.560;2022-11-12T04:07:41;5.97;;;3.60;;
26946;SDS011;14501;52.282;10.560;2022-11-12T04:10:25;7.22;;;3.65;;
26946;SDS011;14501;52.282;10.560;2022-11-12T04:12:53;11.10;;;4.18;;
26946;SDS011;14501;52.282;10.560;2022-11-12T04:15:37;5.90;;;3.25;;
26946;SDS011;14501;52.282;10.560;2022-11-12T04:18:02;7.25;;;4.20;;
26946;SDS011;14501;52.282;10.560;2022-11-12T04:20:47;8.35;;;4.25;;
26946;SDS011;14501;52.282;10.560;2022-11-12T04:23:31;11.23;;;4.82;;
26946;SDS011;14501;52.282;10.560;2022-11-12T04:25:57;7.68;;;4.55;;
26946;SDS011;14501;52.282;10.560;2022-11-12T04:28:41;7.70;;;4.47;;
26946;SDS011;14501;52.282;10.560;2022-11-12T04:31:29;10.45;;;4.70;;
26946;SDS011;14501;52.282;10.560;2022-11-12T04:33:55;5.90;;;3.80;;
26946;SDS011;14501;52.282;10.560;2022-11-12T04:36:41;6.97;;;4.20;;
26946;SDS011;14501;52.282;10.560;2022-11-12T04:39:06;8.82;;;3.83;;
26946;SDS011;14501;52.282;10.560;2022-11-12T04:41:32;5.90;;;3.97;;
26946;SDS011;14501;52.282;10.560;2022-11-12T04:44:16;8.13;;;4.35;;
26946;SDS011;14501;52.282;10.560;2022-11-12T04:47:00;7.90;;;4.10;;
26946;SDS011;14501;52.282;10.560;2022-11-12T04:49:26;15.98;;;6.15;;
26946;SDS011;14501;52.282;10.560;2022-11-12T04:51:51;9.27;;;4.05;;
26946;SDS011;14501;52.282;10.560;2022-11-12T04:54:29;6.60;;;3.67;;
26946;SDS011;14501;52.282;10.560;2022-11-12T04:56:55;6.38;;;3.90;;
26946;SDS011;14501;52.282;10.560;2022-11-12T04:59:21;6.55;;;3.47;;
26946;SDS011;14501;52.282;10.560;2022-11-12T05:01:46;7.22;;;4.35;;
26946;SDS011;14501;52.282;10.560;2022-11-12T05:04:12;6.63;;;4.20;;
26946;SDS011;14501;52.282;10.560;2022-11-12T05:06:37;5.75;;;4.13;;
26946;SDS011;14501;52.282;10.560;2022-11-12T05:09:15;5.78;;;3.75;;
26946;SDS011;14501;52.282;10.560;2022-11-12T05:11:42;7.70;;;4.05;;
26946;SDS011;14501;52.282;10.560;2022-11-12T05:14:08;7.38;;;3.95;;
26946;SDS011;14501;52.282;10.560;2022-11-12T05:16:33;5.85;;;3.78;;
26946;SDS011;14501;52.282;10.560;2022-11-12T05:19:00;6.43;;;3.88;;
26946;SDS011;14501;52.282;10.560;2022-11-12T05:21:25;6.95;;;4.03;;
26946;SDS011;14501;52.282;10.560;2022-11-12T05:24:09;4.97;;;3.22;;
26946;SDS011;14501;52.282;10.560;2022-11-12T05:26:35;6.57;;;3.58;;
26946;SDS011;14501;52.282;10.560;2022-11-12T05:29:01;3.92;;;3.53;;
26946;SDS011;14501;52.282;10.560;2022-11-12T05:31:26;6.00;;;3.40;;
26946;SDS011;14501;52.282;10.560;2022-11-12T05:33:52;7.28;;;3.60;;
26946;SDS011;14501;52.282;10.560;2022-11-12T05:36:18;7.22;;;3.70;;
26946;SDS011;14501;52.282;10.560;2022-11-12T05:38:43;6.68;;;3.28;;
26946;SDS011;14501;52.282;10.560;2022-11-12T05:41:09;4.47;;;3.63;;
26946;SDS011;14501;52.282;10.560;2022-11-12T05:43:35;7.05;;;3.67;;
26946;SDS011;14501;52.282;10.560;2022-11-12T05:46:01;6.38;;;4.07;;
26946;SDS011;14501;52.282;10.560;2022-11-12T05:48:26;10.55;;;4.53;;
26946;SDS011;14501;52.282;10.560;2022-11-12T05:50:52;6.65;;;4.60;;
26946;SDS011;14501;52.282;10.560;2022-11-12T05:53:18;7.55;;;4.90;;
26946;SDS011;14501;52.282;10.560;2022-11-12T05:55:44;8.45;;;4.93;;
26946;SDS011;14501;52.282;10.560;2022-11-12T05:58:09;9.90;;;4.47;;
26946;SDS011;14501;52.282;10.560;2022-11-12T06:00:35;7.78;;;4.10;;
26946;SDS011;14501;52.282;10.560;2022-11-12T06:03:03;8.38;;;4.40;;
26946;SDS011;14501;52.282;10.560;2022-11-12T06:05:30;6.13;;;4.00;;
26946;SDS011;14501;52.282;10.560;2022-11-12T06:07:56;6.43;;;3.75;;
26946;SDS011;14501;52.282;10.560;2022-11-12T06:10:22;10.23;;;4.28;;
26946;SDS011;14501;52.282;10.560;2022-11-12T06:12:47;6.22;;;3.97;;
26946;SDS011;14501;52.282;10.560;2022-11-12T06:15:13;5.40;;;3.65;;
26946;SDS011;14501;52.282;10.560;2022-11-12T06:17:39;9.32;;;4.18;;
26946;SDS011;14501;52.282;10.560;2022-11-12T06:20:05;6.00;;;3.97;;
26946;SDS011;14501;52.282;10.560;2022-11-12T06:22:31;6.57;;;4.55;;
26946;SDS011;14501;52.282;10.560;2022-11-12T06:24:57;6.75;;;4.30;;
26946;SDS011;14501;52.282;10.560;2022-11-12T06:27:23;8.75;;;4.13;;
26946;SDS011;14501;52.282;10.560;2022-11-12T06:29:48;8.50;;;4.82;;
26946;SDS011;14501;52.282;10.560;2022-11-12T06:32:14;8.10;;;4.70;;
26946;SDS011;14501;52.282;10.560;2022-11-12T06:34:40;6.60;;;4.28;;
26946;SDS011;14501;52.282;10.560;2022-11-12T06:37:05;6.63;;;4.20;;
26946;SDS011;14501;52.282;10.560;2022-11-12T06:39:31;12.15;;;4.75;;
26946;SDS011;14501;52.282;10.560;2022-11-12T06:41:56;9.70;;;4.47;;
26946;SDS011;14501;52.282;10.560;2022-11-12T06:44:22;7.60;;;5.18;;
26946;SDS011;14501;52.282;10.560;2022-11-12T06:46:48;6.38;;;4.13;;
26946;SDS011;14501;52.282;10.560;2022-11-12T06:49:14;8.10;;;5.05;;
26946;SDS011;14501;52.282;10.560;2022-11-12T06:51:39;7.75;;;4.90;;
26946;SDS011;14501;52.282;10.560;2022-11-12T06:54:05;9.57;;;5.53;;
26946;SDS011;14501;52.282;10.560;2022-11-12T06:56:31;7.00;;;4.45;;
26946;SDS011;14501;52.282;10.560;2022-11-12T06:58:56;10.52;;;5.00;;
26946;SDS011;14501;52.282;10.560;2022-11-12T07:01:23;7.45;;;4.70;;
26946;SDS011;14501;52.282;10.560;2022-11-12T07:03:50;7.75;;;5.40;;
26946;SDS011;14501;52.282;10.560;2022-11-12T07:06:17;6.68;;;4.57;;
26946;SDS011;14501;52.282;10.560;2022-11-12T07:08:44;6.65;;;4.90;;
26946;SDS011;14501;52.282;10.560;2022-11-12T07:11:11;7.53;;;4.60;;
26946;SDS011;14501;52.282;10.560;2022-11-12T07:13:37;8.57;;;5.10;;
26946;SDS011;14501;52.282;10.560;2022-11-12T07:16:04;7.95;;;4.68;;
26946;SDS011;14501;52.282;10.560;2022-11-12T07:18:31;6.95;;;4.53;;
26946;SDS011;14501;52.282;10.560;2022-11-12T07:20:59;8.63;;;4.40;;
26946;SDS011;14501;52.282;10.560;2022-11-12T07:23:26;11.63;;;5.38;;
26946;SDS011;14501;52.282;10.560;2022-11-12T07:26:06;8.45;;;4.80;;
26946;SDS011;14501;52.282;10.560;2022-11-12T07:28:36;6.80;;;4.55;;
26946;SDS011;14501;52.282;10.560;2022-11-12T07:31:03;8.73;;;4.40;;
26946;SDS011;14501;52.282;10.560;2022-11-12T07:33:30;7.47;;;4.35;;
26946;SDS011;14501;52.282;10.560;2022-11-12T07:36:01;7.97;;;4.50;;
26946;SDS011;14501;52.282;10.560;2022-11-12T07:38:27;9.23;;;4.60;;
26946;SDS011;14501;52.282;10.560;2022-11-12T07:40:59;8.05;;;4.50;;
26946;SDS011;14501;52.282;10.560;2022-11-12T07:43:27;8.55;;;4.57;;
26946;SDS011;14501;52.282;10.560;2022-11-12T07:45:58;8.80;;;4.45;;
26946;SDS011;14501;52.282;10.560;2022-11-12T07:48:25;5.68;;;4.18;;
26946;SDS011;14501;52.282;10.560;2022-11-12T07:50:51;7.18;;;4.40;;
26946;SDS011;14501;52.282;10.560;2022-11-12T07:53:16;14.48;;;5.78;;
26946;SDS011;14501;52.282;10.560;2022-11-12T07:55:42;9.07;;;5.28;;
26946;SDS011;14501;52.282;10.560;2022-11-12T07:58:07;8.77;;;5.07;;
26946;SDS011;14501;52.282;10.560;2022-11-12T08:00:33;10.35;;;4.93;;
26946;SDS011;14501;52.282;10.560;2022-11-12T08:02:59;8.95;;;5.00;;
26946;SDS011;14501;52.282;10.560;2022-11-12T08:05:25;7.88;;;4.22;;
26946;SDS011;14501;52.282;10.560;2022-11-12T08:07:53;7.38;;;5.00;;
26946;SDS011;14501;52.282;10.560;2022-11-12T08:10:19;6.53;;;4.75;;
26946;SDS011;14501;52.282;10.560;2022-11-12T08:12:45;9.30;;;5.50;;
26946;SDS011;14501;52.282;10.560;2022-11-12T08:15:11;8.32;;;5.22;;
26946;SDS011;14501;52.282;10.560;2022-11-12T08:17:37;7.47;;;5.18;;
26946;SDS011;14501;52.282;10.560;2022-11-12T08:20:03;10.90;;;6.00;;
26946;SDS011;14501;52.282;10.560;2022-11-12T08:22:30;8.77;;;5.40;;
26946;SDS011;14501;52.282;10.560;2022-11-12T08:24:56;8.88;;;4.88;;
26946;SDS011;14501;52.282;10.560;2022-11-12T08:27:21;9.18;;;5.35;;
26946;SDS011;14501;52.282;10.560;2022-11-12T08:29:47;8.00;;;4.50;;
26946;SDS011;14501;52.282;10.560;2022-11-12T08:32:13;5.93;;;3.97;;
26946;SDS011;14501;52.282;10.560;2022-11-12T08:34:39;6.43;;;4.18;;
26946;SDS011;14501;52.282;10.560;2022-11-12T08:37:07;7.07;;;4.18;;
26946;SDS011;14501;52.282;10.560;2022-11-12T08:39:33;6.75;;;4.00;;
26946;SDS011;14501;52.282;10.560;2022-11-12T08:41:59;6.18;;;4.07;;
26946;SDS011;14501;52.282;10.560;2022-11-12T08:44:24;5.25;;;3.40;;
26946;SDS011;14501;52.282;10.560;2022-11-12T08:46:50;4.75;;;3.78;;
26946;SDS011;14501;52.282;10.560;2022-11-12T08:49:15;6.00;;;3.78;;
26946;SDS011;14501;52.282;10.560;2022-11-12T08:51:41;5.18;;;3.17;;
26946;SDS011;14501;52.282;10.560;2022-11-12T08:54:07;5.43;;;3.50;;
26946;SDS011;14501;52.282;10.560;2022-11-12T08:56:32;5.18;;;3.72;;
26946;SDS011;14501;52.282;10.560;2022-11-12T08:58:58;6.22;;;3.95;;
26946;SDS011;14501;52.282;10.560;2022-11-12T09:01:24;7.57;;;4.50;;
26946;SDS011;14501;52.282;10.560;2022-11-12T09:03:50;6.60;;;4.43;;
26946;SDS011;14501;52.282;10.560;2022-11-12T09:06:16;5.88;;;3.55;;
26946;SDS011;14501;52.282;10.560;2022-11-12T09:08:41;5.40;;;3.60;;
26946;SDS011;14501;52.282;10.560;2022-11-12T09:11:07;5.47;;;3.63;;
26946;SDS011;14501;52.282;10.560;2022-11-12T09:13:33;4.40;;;3.53;;
26946;SDS011;14501;52.282;10.560;2022-11-12T09:16:03;7.45;;;3.70;;
26946;SDS011;14501;52.282;10.560;2022-11-12T09:18:31;4.68;;;3.00;;
26946;SDS011;14501;52.282;10.560;2022-11-12T09:21:04;5.93;;;3.55;;
26946;SDS011;14501;52.282;10.560;2022-11-12T09:23:33;4.47;;;3.72;;
26946;SDS011;14501;52.282;10.560;2022-11-12T09:26:00;6.28;;;3.40;;
26946;SDS011;14501;52.282;10.560;2022-11-12T09:28:26;6.15;;;3.80;;
26946;SDS011;14501;52.282;10.560;2022-11-12T09:30:52;5.72;;;3.40;;
26946;SDS011;14501;52.282;10.560;2022-11-12T09:33:20;8.15;;;3.60;;
26946;SDS011;14501;52.282;10.560;2022-11-12T09:35:48;6.68;;;3.72;;
26946;SDS011;14501;52.282;10.560;2022-11-12T09:38:14;4.47;;;3.28;;
26946;SDS011;14501;52.282;10.560;2022-11-12T09:46:01;8.00;;;4.18;;
26946;SDS011;14501;52.282;10.560;2022-11-12T09:48:38;6.18;;;3.70;;
26946;SDS011;14501;52.282;10.560;2022-11-12T09:51:12;9.13;;;4.28;;
26946;SDS011;14501;52.282;10.560;2022-11-12T09:53:55;12.70;;;5.50;;
26946;SDS011;14501;52.282;10.560;2022-11-12T09:56:23;10.75;;;4.28;;
26946;SDS011;14501;52.282;10.560;2022-11-12T09:58:50;7.85;;;5.03;;
26946;SDS011;14501;52.282;10.560;2022-11-12T10:01:34;7.75;;;4.78;;
26946;SDS011;14501;52.282;10.560;2022-11-12T10:04:12;7.45;;;5.28;;
26946;SDS011;14501;52.282;10.560;2022-11-12T10:07:11;7.45;;;4.45;;
26946;SDS011;14501;52.282;10.560;2022-11-12T10:12:37;6.95;;;4.45;;
26946;SDS011;14501;52.282;10.560;2022-11-12T10:18:47;6.10;;;3.42;;
26946;SDS011;14501;52.282;10.560;2022-11-12T10:23:56;4.85;;;3.25;;
26946;SDS011;14501;52.282;10.560;2022-11-12T10:26:23;5.78;;;3.25;;
26946;SDS011;14501;52.282;10.560;2022-11-12T10:31:37;6.47;;;3.53;;
26946;SDS011;14501;52.282;10.560;2022-11-12T10:36:39;6.88;;;3.58;;
26946;SDS011;14501;52.282;10.560;2022-11-12T10:42:24;4.95;;;3.28;;
26946;SDS011;14501;52.282;10.560;2022-11-12T10:44:48;4.68;;;3.40;;
26946;SDS011;14501;52.282;10.560;2022-11-12T10:52:27;5.57;;;3.70;;
26946;SDS011;14501;52.282;10.560;2022-11-12T10:55:04;5.85;;;3.88;;
26946;SDS011;14501;52.282;10.560;2022-11-12T10:57:30;7.50;;;4.07;;
26946;SDS011;14501;52.282;10.560;2022-11-12T11:00:06;5.70;;;3.72;;
26946;SDS011;14501;52.282;10.560;2022-11-12T11:02:45;7.87;;;3.63;;
26946;SDS011;14501;52.282;10.560;2022-11-12T11:08:12;7.28;;;4.53;;
26946;SDS011;14501;52.282;10.560;2022-11-12T11:10:37;4.80;;;3.80;;
26946;SDS011;14501;52.282;10.560;2022-11-12T11:15:56;5.32;;;3.90;;
26946;SDS011;14501;52.282;10.560;2022-11-12T11:18:26;5.00;;;3.70;;
26946;SDS011;14501;52.282;10.560;2022-11-12T11:21:00;5.28;;;3.83;;
26946;SDS011;14501;52.282;10.560;2022-11-12T11:28:59;7.32;;;4.03;;
26946;SDS011;14501;52.282;10.560;2022-11-12T11:31:52;5.22;;;4.15;;
26946;SDS011;14501;52.282;10.560;2022-11-12T11:34:47;7.65;;;4.10;;
26946;SDS011;14501;52.282;10.560;2022-11-12T11:37:36;6.97;;;3.38;;
26946;SDS011;14501;52.282;10.560;2022-11-12T11:42:55;7.25;;;3.42;;
26946;SDS011;14501;52.282;10.560;2022-11-12T11:48:14;10.00;;;4.25;;
26946;SDS011;14501;52.282;10.560;2022-11-12T11:51:09;5.72;;;3.60;;
26946;SDS011;14501;52.282;10.560;2022-11-12T11:56:40;7.80;;;4.30;;
26946;SDS011;14501;52.282;10.560;2022-11-12T12:02:11;7.10;;;4.03;;
26946;SDS011;14501;52.282;10.560;2022-11-12T12:07:57;9.95;;;3.78;;
26946;SDS011;14501;52.282;10.560;2022-11-12T12:10:49;5.88;;;3.22;;
26946;SDS011;14501;52.282;10.560;2022-11-12T12:22:39;3.55;;;2.30;;
26946;SDS011;14501;52.282;10.560;2022-11-12T12:25:20;4.53;;;2.28;;
26946;SDS011;14501;52.282;10.560;2022-11-12T12:27:50;3.22;;;2.08;;
26946;SDS011;14501;52.282;10.560;2022-11-12T12:30:24;3.38;;;1.90;;
26946;SDS011;14501;52.282;10.560;2022-11-12T12:33:03;4.55;;;1.70;;
26946;SDS011;14501;52.282;10.560;2022-11-12T12:35:37;2.92;;;1.63;;
26946;SDS011;14501;52.282;10.560;2022-11-12T12:38:14;4.10;;;1.80;;
26946;SDS011;14501;52.282;10.560;2022-11-12T12:40:51;4.80;;;1.80;;
26946;SDS011;14501;52.282;10.560;2022-11-12T12:43:20;2.97;;;1.70;;
26946;SDS011;14501;52.282;10.560;2022-11-12T12:45:52;3.92;;;1.88;;
26946;SDS011;14501;52.282;10.560;2022-11-12T12:48:23;4.75;;;1.60;;
26946;SDS011;14501;52.282;10.560;2022-11-12T12:51:09;7.63;;;1.80;;
26946;SDS011;14501;52.282;10.560;2022-11-12T12:53:35;3.10;;;2.08;;
26946;SDS011;14501;52.282;10.560;2022-11-12T12:56:04;4.40;;;2.00;;
26946;SDS011;14501;52.282;10.560;2022-11-12T13:09:32;3.30;;;2.40;;
26946;SDS011;14501;52.282;10.560;2022-11-12T13:19:31;4.43;;;2.67;;
26946;SDS011;14501;52.282;10.560;2022-11-12T13:22:45;5.55;;;2.95;;
26946;SDS011;14501;52.282;10.560;2022-11-12T13:25:01;3.20;;;2.47;;
26946;SDS011;14501;52.282;10.560;2022-11-12T13:37:50;2.47;;;2.25;;
26946;SDS011;14501;52.282;10.560;2022-11-12T13:43:02;4.75;;;2.90;;
26946;SDS011;14501;52.282;10.560;2022-11-12T13:45:45;4.38;;;2.63;;
26946;SDS011;14501;52.282;10.560;2022-11-12T13:48:16;10.20;;;3.38;;
26946;SDS011;14501;52.282;10.560;2022-11-12T13:50:51;4.00;;;2.80;;
26946;SDS011;14501;52.282;10.560;2022-11-12T13:53:23;3.70;;;2.58;;
26946;SDS011;14501;52.282;10.560;2022-11-12T13:55:52;13.07;;;3.17;;
26946;SDS011;14501;52.282;10.560;2022-11-12T13:58:32;4.38;;;2.40;;
26946;SDS011;14501;52.282;10.560;2022-11-12T14:01:00;3.45;;;2.58;;
26946;SDS011;14501;52.282;10.560;2022-11-12T14:03:34;2.70;;;2.00;;
26946;SDS011;14501;52.282;10.560;2022-11-12T14:06:30;3.78;;;1.95;;
26946;SDS011;14501;52.282;10.560;2022-11-12T14:17:24;5.07;;;3.42;;
26946;SDS011;14501;52.282;10.560;2022-11-12T14:23:13;5.18;;;2.90;;
26946;SDS011;14501;52.282;10.560;2022-11-12T14:25:53;9.85;;;2.65;;
26946;SDS011;14501;52.282;10.560;2022-11-12T14:30:54;9.02;;;2.95;;
26946;SDS011;14501;52.282;10.560;2022-11-12T14:33:21;3.75;;;2.80;;
26946;SDS011;14501;52.282;10.560;2022-11-12T14:35:48;9.07;;;2.92;;
26946;SDS011;14501;52.282;10.560;2022-11-12T14:40:48;8.63;;;3.72;;
26946;SDS011;14501;52.282;10.560;2022-11-12T14:43:23;4.40;;;3.08;;
26946;SDS011;14501;52.282;10.560;2022-11-12T14:46:05;6.72;;;3.30;;
26946;SDS011;14501;52.282;10.560;2022-11-12T14:48:34;4.93;;;3.38;;
26946;SDS011;14501;52.282;10.560;2022-11-12T14:51:12;6.15;;;2.70;;
26946;SDS011;14501;52.282;10.560;2022-11-12T14:53:50;5.70;;;2.20;;
26946;SDS011;14501;52.282;10.560;2022-11-12T14:56:26;4.65;;;2.20;;
26946;SDS011;14501;52.282;10.560;2022-11-12T14:58:56;4.45;;;2.63;;
26946;SDS011;14501;52.282;10.560;2022-11-12T15:01:33;3.92;;;2.20;;
26946;SDS011;14501;52.282;10.560;2022-11-12T15:06:36;2.83;;;2.30;;
26946;SDS011;14501;52.282;10.560;2022-11-12T15:09:02;6.15;;;2.90;;
26946;SDS011;14501;52.282;10.560;2022-11-12T15:14:09;5.65;;;2.45;;
26946;SDS011;14501;52.282;10.560;2022-11-12T15:16:45;4.95;;;2.70;;
26946;SDS011;14501;52.282;10.560;2022-11-12T15:19:15;5.97;;;3.30;;
26946;SDS011;14501;52.282;10.560;2022-11-12T15:21:46;13.85;;;9.25;;
26946;SDS011;14501;52.282;10.560;2022-11-12T15:26:47;6.47;;;3.50;;
26946;SDS011;14501;52.282;10.560;2022-11-12T15:31:50;6.47;;;3.92;;
26946;SDS011;14501;52.282;10.560;2022-11-12T15:34:28;7.20;;;3.70;;
26946;SDS011;14501;52.282;10.560;2022-11-12T15:36:57;7.45;;;3.10;;
26946;SDS011;14501;52.282;10.560;2022-11-12T15:39:31;10.20;;;3.80;;
26946;SDS011;14501;52.282;10.560;2022-11-12T15:42:12;5.65;;;3.30;;
26946;SDS011;14501;52.282;10.560;2022-11-12T15:44:42;5.68;;;3.30;;
26946;SDS011;14501;52.282;10.560;2022-11-12T15:47:19;6.57;;;3.70;;
26946;SDS011;14501;52.282;10.560;2022-11-12T15:49:46;8.30;;;3.95;;
26946;SDS011;14501;52.282;10.560;2022-11-12T15:52:13;10.32;;;3.80;;
26946;SDS011;14501;52.282;10.560;2022-11-12T15:54:39;6.32;;;3.67;;
26946;SDS011;14501;52.282;10.560;2022-11-12T15:57:06;6.53;;;3.50;;
26946;SDS011;14501;52.282;10.560;2022-11-12T15:59:34;5.07;;;3.03;;
26946;SDS011;14501;52.282;10.560;2022-11-12T16:02:00;4.85;;;3.40;;
26946;SDS011;14501;52.282;10.560;2022-11-12T16:04:26;8.55;;;4.35;;
26946;SDS011;14501;52.282;10.560;2022-11-12T16:06:51;7.00;;;3.65;;
26946;SDS011;14501;52.282;10.560;2022-11-12T16:09:17;5.15;;;3.38;;
26946;SDS011;14501;52.282;10.560;2022-11-12T16:11:46;8.00;;;3.85;;
26946;SDS011;14501;52.282;10.560;2022-11-12T16:14:14;13.57;;;4.25;;
26946;SDS011;14501;52.282;10.560;2022-11-12T16:16:39;11.50;;;5.43;;
26946;SDS011;14501;52.282;10.560;2022-11-12T16:19:12;18.08;;;7.47;;
26946;SDS011;14501;52.282;10.560;2022-11-12T16:21:38;11.45;;;6.28;;
26946;SDS011;14501;52.282;10.560;2022-11-12T16:24:05;19.55;;;6.45;;
26946;SDS011;14501;52.282;10.560;2022-11-12T16:26:31;12.35;;;5.88;;
26946;SDS011;14501;52.282;10.560;2022-11-12T16:28:57;10.68;;;5.68;;
26946;SDS011;14501;52.282;10.560;2022-11-12T16:31:24;11.60;;;6.63;;
26946;SDS011;14501;52.282;10.560;2022-11-12T16:33:50;14.02;;;7.32;;
26946;SDS011;14501;52.282;10.560;2022-11-12T16:36:16;18.70;;;6.68;;
26946;SDS011;14501;52.282;10.560;2022-11-12T16:38:42;12.98;;;7.10;;
26946;SDS011;14501;52.282;10.560;2022-11-12T16:41:09;12.85;;;6.57;;
26946;SDS011;14501;52.282;10.560;2022-11-12T16:43:36;18.05;;;7.78;;
26946;SDS011;14501;52.282;10.560;2022-11-12T16:46:05;15.82;;;9.18;;
26946;SDS011;14501;52.282;10.560;2022-11-12T16:48:45;15.23;;;8.57;;